Time;durP1;ratioP1;P1;durP2;ratioP2;P2;SDS_P1;SDS_P2;PMS_P1;PMS_P2;Temp;Humidity;BMP_temperature;BMP_pressure;BME280_temperature;BME280_humidity;BME280_pressure;Samples;Min_cycle;Max_cycle;Signal;HPM_P1;HPM_P2
2023/05/23 00:00:41;;;;;;;9.60;4.93;;;;;;;;;;5116051;28;20028;-72
2023/05/23 00:03:07;;;;;;;6.93;4.10;;;;;;;;;;5115831;28;20039;-73
2023/05/23 00:05:33;;;;;;;11.02;4.28;;;;;;;;;;5115941;27;20024;-73
2023/05/23 00:08:00;;;;;;;10.30;4.43;;;;;;;;;;5115958;27;20031;-72
2023/05/23 00:10:25;;;;;;;10.57;4.40;;;;;;;;;;5115941;27;20329;-74
2023/05/23 00:12:51;;;;;;;8.18;4.55;;;;;;;;;;5096535;28;20028;-72
2023/05/23 00:15:16;;;;;;;10.68;4.30;;;;;;;;;;5092367;28;20036;-71
2023/05/23 00:17:43;;;;;;;14.10;4.72;;;;;;;;;;5085853;28;20028;-73
2023/05/23 00:20:10;;;;;;;10.20;4.43;;;;;;;;;;5088993;28;20028;-72
2023/05/23 00:22:38;;;;;;;11.13;4.47;;;;;;;;;;5091496;28;20043;-72
2023/05/23 00:25:05;;;;;;;11.52;4.22;;;;;;;;;;5093673;28;20020;-69
2023/05/23 00:27:31;;;;;;;11.63;4.30;;;;;;;;;;5095082;28;20036;-66
2023/05/23 00:29:56;;;;;;;15.43;4.60;;;;;;;;;;5095208;28;20028;-67
2023/05/23 00:32:22;;;;;;;9.25;4.35;;;;;;;;;;5095091;28;20456;-72
2023/05/23 00:34:47;;;;;;;12.15;4.85;;;;;;;;;;5094824;28;20050;-73
2023/05/23 00:37:14;;;;;;;12.90;4.38;;;;;;;;;;5094911;28;20059;-71
2023/05/23 00:39:39;;;;;;;8.90;4.32;;;;;;;;;;5108239;28;20110;-71
2023/05/23 00:42:05;;;;;;;10.73;4.13;;;;;;;;;;5115595;28;20103;-70
2023/05/23 00:44:31;;;;;;;8.52;4.20;;;;;;;;;;5096229;28;20044;-70
2023/05/23 00:46:57;;;;;;;7.47;4.85;;;;;;;;;;5091572;28;20028;-71
2023/05/23 00:49:23;;;;;;;6.57;4.25;;;;;;;;;;5093340;28;20020;-72
2023/05/23 00:51:50;;;;;;;7.05;4.53;;;;;;;;;;5092901;28;20020;-71
2023/05/23 00:54:42;;;;;;;5.82;4.20;;;;;;;;;;5093458;28;20355;-69
2023/05/23 00:57:07;;;;;;;9.85;4.40;;;;;;;;;;5089566;28;20044;-73
2023/05/23 00:59:35;;;;;;;9.45;4.78;;;;;;;;;;5093479;28;20024;-71
2023/05/23 01:02:01;;;;;;;7.40;4.50;;;;;;;;;;5094627;28;20500;-71
2023/05/23 01:04:27;;;;;;;9.02;4.57;;;;;;;;;;5094438;28;20024;-71
2023/05/23 01:06:55;;;;;;;9.00;4.50;;;;;;;;;;5094654;28;20053;-72
2023/05/23 01:09:24;;;;;;;8.40;4.68;;;;;;;;;;5094600;28;20058;-71
2023/05/23 01:12:02;;;;;;;7.38;4.53;;;;;;;;;;5094665;28;20376;-66
2023/05/23 01:14:46;;;;;;;11.20;4.88;;;;;;;;;;5094440;28;20031;-67
2023/05/23 01:17:57;;;;;;;9.82;4.63;;;;;;;;;;5094192;28;20464;-71
2023/05/23 01:20:29;;;;;;;9.43;4.53;;;;;;;;;;5004408;28;20408;-69
2023/05/23 01:23:00;;;;;;;8.93;4.60;;;;;;;;;;5012173;28;20091;-72
2023/05/23 01:25:58;;;;;;;8.65;4.18;;;;;;;;;;5012250;28;20604;-71
2023/05/23 01:28:30;;;;;;;8.18;4.30;;;;;;;;;;5012309;28;20041;-71
2023/05/23 01:30:57;;;;;;;6.72;4.45;;;;;;;;;;5012289;28;20030;-72
2023/05/23 01:33:24;;;;;;;8.00;4.15;;;;;;;;;;5011735;28;20034;-69
2023/05/23 01:35:50;;;;;;;9.65;4.38;;;;;;;;;;5012053;28;20027;-70
2023/05/23 01:38:16;;;;;;;13.18;4.40;;;;;;;;;;5013522;28;20439;-71
2023/05/23 01:40:41;;;;;;;9.63;4.32;;;;;;;;;;5031758;28;20463;-71
2023/05/23 01:43:07;;;;;;;7.60;4.20;;;;;;;;;;5031622;28;20419;-65
2023/05/23 01:45:33;;;;;;;10.57;4.70;;;;;;;;;;5031240;28;20115;-72
2023/05/23 01:48:00;;;;;;;8.13;4.72;;;;;;;;;;5031218;28;20114;-69
2023/05/23 01:50:25;;;;;;;8.10;4.38;;;;;;;;;;5031523;28;20476;-66
2023/05/23 01:52:52;;;;;;;7.53;4.40;;;;;;;;;;5014726;28;20032;-66
2023/05/23 01:55:21;;;;;;;7.85;4.25;;;;;;;;;;5031504;28;20070;-68
2023/05/23 01:57:50;;;;;;;9.45;5.10;;;;;;;;;;5100136;28;20031;-65
2023/05/23 02:00:16;;;;;;;10.68;4.97;;;;;;;;;;5113963;28;20034;-69
2023/05/23 02:02:41;;;;;;;11.80;4.55;;;;;;;;;;5111584;28;20353;-72
2023/05/23 02:05:08;;;;;;;7.35;4.50;;;;;;;;;;5114003;28;20023;-73
2023/05/23 02:07:34;;;;;;;7.18;4.55;;;;;;;;;;5113815;28;20389;-69
2023/05/23 02:09:59;;;;;;;7.57;4.85;;;;;;;;;;5113797;28;20032;-73
2023/05/23 02:12:25;;;;;;;7.75;4.40;;;;;;;;;;5113784;28;20418;-73
2023/05/23 02:14:53;;;;;;;6.43;4.30;;;;;;;;;;5113497;28;20020;-72
2023/05/23 02:17:20;;;;;;;7.18;4.50;;;;;;;;;;5113619;28;20016;-72
2023/05/23 02:19:46;;;;;;;7.30;3.85;;;;;;;;;;5113724;28;20094;-73
2023/05/23 02:22:12;;;;;;;8.18;4.20;;;;;;;;;;5104452;28;20044;-72
2023/05/23 02:24:38;;;;;;;12.07;4.50;;;;;;;;;;5093439;28;20020;-72
2023/05/23 02:27:03;;;;;;;5.97;4.20;;;;;;;;;;5093023;28;20028;-72
2023/05/23 02:29:29;;;;;;;8.68;4.60;;;;;;;;;;5092848;28;20032;-73
2023/05/23 02:31:54;;;;;;;6.72;4.07;;;;;;;;;;5093029;28;20104;-73
2023/05/23 02:34:20;;;;;;;6.95;4.07;;;;;;;;;;5092916;28;20446;-72
2023/05/23 02:36:45;;;;;;;10.90;4.40;;;;;;;;;;5092800;28;20040;-65
2023/05/23 02:39:11;;;;;;;7.03;4.22;;;;;;;;;;5102200;28;20069;-67
2023/05/23 02:41:36;;;;;;;6.88;4.57;;;;;;;;;;5113174;28;20019;-65
2023/05/23 02:44:02;;;;;;;10.88;4.35;;;;;;;;;;5112752;28;20043;-70
2023/05/23 02:46:27;;;;;;;8.63;4.30;;;;;;;;;;5113076;28;20461;-70
2023/05/23 02:48:53;;;;;;;6.28;3.92;;;;;;;;;;5113201;28;20028;-72
2023/05/23 02:51:18;;;;;;;7.97;4.75;;;;;;;;;;5113076;28;20027;-72
2023/05/23 02:53:43;;;;;;;6.20;4.07;;;;;;;;;;5113161;28;20028;-70
2023/05/23 02:56:09;;;;;;;8.50;4.75;;;;;;;;;;5113087;28;20020;-72
2023/05/23 02:58:34;;;;;;;14.93;9.30;;;;;;;;;;5112928;28;20042;-72
2023/05/23 03:01:03;;;;;;;12.63;6.15;;;;;;;;;;5113122;28;20361;-72
2023/05/23 03:03:30;;;;;;;8.10;4.57;;;;;;;;;;5113125;28;20456;-72
2023/05/23 03:05:57;;;;;;;8.23;4.30;;;;;;;;;;5112956;28;20462;-73
2023/05/23 03:08:22;;;;;;;8.45;4.68;;;;;;;;;;5113053;28;20028;-71
2023/05/23 03:10:48;;;;;;;8.23;4.68;;;;;;;;;;5113062;28;20475;-73
2023/05/23 03:13:13;;;;;;;6.65;4.60;;;;;;;;;;5112706;28;20065;-72
2023/05/23 03:15:38;;;;;;;9.20;4.75;;;;;;;;;;5117242;28;20024;-66
2023/05/23 03:18:04;;;;;;;10.02;4.63;;;;;;;;;;5117167;28;20453;-66
2023/05/23 03:20:29;;;;;;;8.10;4.63;;;;;;;;;;5117167;28;20047;-67
2023/05/23 03:22:55;;;;;;;10.55;4.72;;;;;;;;;;5101845;28;20434;-65
2023/05/23 03:25:20;;;;;;;12.05;4.38;;;;;;;;;;5096664;28;20082;-71
2023/05/23 03:27:45;;;;;;;10.18;4.93;;;;;;;;;;5096273;28;20380;-71
2023/05/23 03:30:11;;;;;;;9.98;4.60;;;;;;;;;;5096609;28;20031;-71
2023/05/23 03:32:37;;;;;;;8.00;4.78;;;;;;;;;;5096370;28;20028;-72
2023/05/23 03:35:02;;;;;;;13.23;4.80;;;;;;;;;;5096482;28;20164;-72
2023/05/23 03:37:28;;;;;;;10.27;5.53;;;;;;;;;;5096168;28;20253;-72
2023/05/23 03:39:53;;;;;;;10.10;4.55;;;;;;;;;;5111700;28;20073;-72
2023/05/23 03:42:19;;;;;;;8.02;4.68;;;;;;;;;;5116462;28;20049;-70
2023/05/23 03:44:44;;;;;;;7.28;4.93;;;;;;;;;;5116392;28;20489;-71
2023/05/23 03:47:10;;;;;;;8.68;4.55;;;;;;;;;;5115143;28;20477;-72
2023/05/23 03:49:35;;;;;;;8.82;5.07;;;;;;;;;;5116630;28;20020;-65
2023/05/23 03:52:00;;;;;;;8.10;5.15;;;;;;;;;;5116620;28;20408;-65
2023/05/23 03:54:26;;;;;;;7.10;4.72;;;;;;;;;;5116436;28;20468;-65
2023/05/23 03:56:51;;;;;;;7.68;4.93;;;;;;;;;;5115893;28;20065;-65
2023/05/23 03:59:17;;;;;;;7.43;5.10;;;;;;;;;;5116354;28;20020;-68
2023/05/23 04:01:43;;;;;;;9.90;4.93;;;;;;;;;;5116259;28;20168;-66
2023/05/23 04:04:08;;;;;;;10.40;4.97;;;;;;;;;;5116249;28;20322;-71
2023/05/23 04:06:34;;;;;;;8.43;4.88;;;;;;;;;;5114968;28;20028;-73
2023/05/23 04:09:00;;;;;;;7.68;4.60;;;;;;;;;;5116071;28;20015;-69
2023/05/23 04:11:25;;;;;;;7.68;4.53;;;;;;;;;;5115775;28;20473;-72
2023/05/23 04:13:52;;;;;;;7.45;4.40;;;;;;;;;;5116043;28;20019;-71
2023/05/23 04:16:17;;;;;;;9.75;5.00;;;;;;;;;;5116133;28;20027;-71
2023/05/23 04:18:45;;;;;;;7.68;4.70;;;;;;;;;;5116015;28;20346;-71
2023/05/23 04:21:11;;;;;;;13.30;4.93;;;;;;;;;;5115236;28;20027;-68
2023/05/23 04:23:37;;;;;;;8.73;4.85;;;;;;;;;;5095388;28;20036;-66
2023/05/23 04:26:04;;;;;;;8.05;4.80;;;;;;;;;;5094008;28;20032;-70
2023/05/23 04:28:30;;;;;;;8.35;4.88;;;;;;;;;;5095425;28;20081;-70
2023/05/23 04:30:57;;;;;;;10.40;5.07;;;;;;;;;;5095264;28;20021;-70
2023/05/23 04:33:22;;;;;;;8.38;4.93;;;;;;;;;;5094025;28;20058;-72
2023/05/23 04:35:48;;;;;;;7.40;4.90;;;;;;;;;;5095249;28;20068;-67
2023/05/23 04:38:13;;;;;;;6.78;5.00;;;;;;;;;;5096451;28;20032;-70
2023/05/23 04:40:39;;;;;;;9.35;5.32;;;;;;;;;;5115373;28;20031;-71
2023/05/23 04:43:04;;;;;;;7.20;4.68;;;;;;;;;;5115547;28;20089;-73
2023/05/23 04:45:30;;;;;;;10.85;5.50;;;;;;;;;;5115285;28;20043;-71
2023/05/23 04:47:56;;;;;;;7.78;4.78;;;;;;;;;;5115323;28;20055;-67
2023/05/23 04:50:21;;;;;;;9.90;5.72;;;;;;;;;;5115446;28;20062;-72
2023/05/23 04:52:47;;;;;;;12.07;4.93;;;;;;;;;;5115433;28;20076;-68
2023/05/23 04:55:12;;;;;;;9.25;5.18;;;;;;;;;;5115228;28;20042;-72
2023/05/23 04:57:38;;;;;;;8.27;5.30;;;;;;;;;;5115298;28;20412;-67
2023/05/23 05:00:09;;;;;;;15.57;5.85;;;;;;;;;;5115237;28;20024;-66
2023/05/23 05:02:37;;;;;;;9.43;4.95;;;;;;;;;;5115162;28;20184;-65
2023/05/23 05:05:03;;;;;;;8.77;5.72;;;;;;;;;;5115068;28;20492;-65
2023/05/23 05:07:29;;;;;;;11.93;4.63;;;;;;;;;;5114821;28;20038;-65
2023/05/23 05:09:55;;;;;;;12.55;5.43;;;;;;;;;;5114692;27;20060;-66
2023/05/23 05:12:20;;;;;;;7.78;4.90;;;;;;;;;;5114784;28;20103;-65
2023/05/23 05:14:46;;;;;;;10.57;5.25;;;;;;;;;;5114795;27;20032;-64
2023/05/23 05:17:11;;;;;;;12.30;5.50;;;;;;;;;;5113494;28;20016;-72
2023/05/23 05:19:37;;;;;;;11.85;5.63;;;;;;;;;;5114988;28;20030;-73
2023/05/23 05:22:03;;;;;;;10.55;5.55;;;;;;;;;;5106831;27;20039;-73
2023/05/23 05:24:29;;;;;;;10.90;5.70;;;;;;;;;;5094211;28;20511;-71
2023/05/23 05:26:56;;;;;;;8.50;5.72;;;;;;;;;;5094205;28;20059;-71
2023/05/23 05:29:21;;;;;;;10.70;5.60;;;;;;;;;;5094173;28;20085;-72
2023/05/23 05:31:46;;;;;;;10.70;5.30;;;;;;;;;;5094174;28;20024;-72
2023/05/23 05:34:12;;;;;;;10.27;6.00;;;;;;;;;;5094146;28;20359;-69
2023/05/23 05:36:44;;;;;;;9.82;5.72;;;;;;;;;;5093291;28;21116;-72
2023/05/23 05:39:10;;;;;;;10.55;5.43;;;;;;;;;;5102930;28;20033;-68
2023/05/23 05:41:36;;;;;;;13.82;5.40;;;;;;;;;;5114224;28;20106;-66
2023/05/23 05:44:01;;;;;;;11.38;5.75;;;;;;;;;;5114047;28;20468;-68
2023/05/23 05:46:27;;;;;;;15.82;5.72;;;;;;;;;;5114112;28;20488;-71
2023/05/23 05:48:52;;;;;;;14.35;5.68;;;;;;;;;;5114227;28;20023;-71
2023/05/23 05:51:17;;;;;;;12.30;5.72;;;;;;;;;;5114157;28;20385;-70
2023/05/23 05:53:43;;;;;;;14.23;5.78;;;;;;;;;;5113793;28;20030;-72
2023/05/23 05:56:08;;;;;;;10.18;5.22;;;;;;;;;;5113961;28;20095;-66
2023/05/23 05:58:34;;;;;;;11.73;5.25;;;;;;;;;;5113888;28;20031;-67
2023/05/23 06:00:59;;;;;;;9.90;5.28;;;;;;;;;;5113971;27;20084;-73
2023/05/23 06:03:26;;;;;;;9.50;5.30;;;;;;;;;;5113915;28;20028;-73
2023/05/23 06:05:51;;;;;;;17.63;5.80;;;;;;;;;;5113585;28;20423;-70
2023/05/23 06:08:17;;;;;;;9.57;5.88;;;;;;;;;;5113803;27;20023;-71
2023/05/23 06:10:42;;;;;;;15.52;5.85;;;;;;;;;;5113801;28;20019;-72
2023/05/23 06:13:08;;;;;;;9.98;5.93;;;;;;;;;;5113730;28;20016;-72
2023/05/23 06:15:33;;;;;;;10.05;5.40;;;;;;;;;;5113770;28;20034;-65
2023/05/23 06:17:58;;;;;;;15.23;5.93;;;;;;;;;;5113499;28;20089;-70
2023/05/23 06:20:24;;;;;;;14.25;6.28;;;;;;;;;;5113624;28;20058;-72
2023/05/23 06:22:49;;;;;;;17.08;5.82;;;;;;;;;;5098968;28;20024;-71
2023/05/23 06:25:15;;;;;;;8.52;5.20;;;;;;;;;;5093090;28;20499;-72
2023/05/23 06:27:40;;;;;;;12.55;6.00;;;;;;;;;;5093091;28;20181;-69
2023/05/23 06:30:06;;;;;;;12.57;5.63;;;;;;;;;;5093204;28;20024;-71
2023/05/23 06:32:32;;;;;;;14.35;6.15;;;;;;;;;;5092928;28;20382;-72
2023/05/23 06:34:57;;;;;;;13.63;5.43;;;;;;;;;;5092892;28;20032;-68
2023/05/23 06:37:23;;;;;;;13.02;6.50;;;;;;;;;;5092732;28;20030;-70
2023/05/23 06:39:48;;;;;;;13.88;5.90;;;;;;;;;;5107541;28;20038;-69
2023/05/23 06:42:15;;;;;;;16.00;6.10;;;;;;;;;;5113317;28;20394;-71
2023/05/23 06:44:40;;;;;;;22.08;7.03;;;;;;;;;;5113164;28;20054;-69
2023/05/23 06:47:05;;;;;;;13.18;6.25;;;;;;;;;;5113144;28;20107;-69
2023/05/23 06:49:31;;;;;;;18.50;5.65;;;;;;;;;;5112596;28;20433;-72
2023/05/23 06:51:56;;;;;;;15.15;5.97;;;;;;;;;;5112914;28;20447;-71
2023/05/23 06:54:22;;;;;;;13.13;5.55;;;;;;;;;;5113092;28;20057;-70
2023/05/23 06:56:47;;;;;;;15.27;6.22;;;;;;;;;;5111801;28;20030;-70
2023/05/23 06:59:13;;;;;;;14.52;6.40;;;;;;;;;;5099169;28;20039;-70
2023/05/23 07:01:38;;;;;;;12.02;5.88;;;;;;;;;;5091831;28;20102;-70
2023/05/23 07:04:04;;;;;;;11.90;5.78;;;;;;;;;;5102897;28;20108;-67
2023/05/23 07:06:30;;;;;;;24.38;6.47;;;;;;;;;;5102500;28;20024;-71
2023/05/23 07:08:55;;;;;;;18.98;6.22;;;;;;;;;;5112659;28;20031;-71
2023/05/23 07:11:21;;;;;;;20.95;6.07;;;;;;;;;;5098644;28;20377;-69
2023/05/23 07:13:46;;;;;;;11.23;6.10;;;;;;;;;;5092252;28;20027;-72
2023/05/23 07:16:12;;;;;;;13.35;6.10;;;;;;;;;;5092371;28;20043;-70
2023/05/23 07:18:37;;;;;;;21.92;5.82;;;;;;;;;;5092037;28;20484;-73
2023/05/23 07:21:03;;;;;;;20.95;6.07;;;;;;;;;;5091887;28;20024;-67
2023/05/23 07:23:31;;;;;;;16.08;5.80;;;;;;;;;;5091925;28;20544;-69
2023/05/23 07:25:56;;;;;;;20.90;6.45;;;;;;;;;;5092123;28;20028;-69
2023/05/23 07:28:22;;;;;;;17.65;6.55;;;;;;;;;;5091278;28;20355;-65
2023/05/23 07:30:47;;;;;;;16.50;5.97;;;;;;;;;;5091975;28;20495;-69
2023/05/23 07:33:13;;;;;;;15.73;6.63;;;;;;;;;;5091711;28;20056;-69
2023/05/23 07:35:38;;;;;;;18.63;5.72;;;;;;;;;;5094526;28;20084;-69
2023/05/23 07:38:04;;;;;;;15.18;5.82;;;;;;;;;;5094063;28;20111;-66
2023/05/23 07:40:29;;;;;;;15.13;5.97;;;;;;;;;;5112289;28;20511;-66
2023/05/23 07:42:55;;;;;;;17.17;6.05;;;;;;;;;;5112446;28;20465;-71
2023/05/23 07:45:21;;;;;;;11.60;5.65;;;;;;;;;;5097500;28;20043;-67
2023/05/23 07:47:46;;;;;;;17.98;6.20;;;;;;;;;;5091669;28;20159;-66
2023/05/23 07:50:11;;;;;;;16.92;5.80;;;;;;;;;;5091825;28;20051;-67
2023/05/23 07:52:37;;;;;;;12.35;5.55;;;;;;;;;;5091809;28;20620;-66
2023/05/23 07:55:03;;;;;;;17.73;5.72;;;;;;;;;;5091894;28;20043;-68
2023/05/23 07:57:29;;;;;;;16.35;6.07;;;;;;;;;;5091908;28;20509;-69
2023/05/23 07:59:54;;;;;;;15.70;6.13;;;;;;;;;;5092991;28;20043;-71
2023/05/23 08:02:20;;;;;;;14.32;5.88;;;;;;;;;;5097240;28;20035;-68
2023/05/23 08:04:46;;;;;;;16.30;5.75;;;;;;;;;;5106551;28;20483;-71
2023/05/23 08:07:12;;;;;;;13.25;6.03;;;;;;;;;;5103312;28;20038;-65
2023/05/23 08:09:39;;;;;;;12.60;5.55;;;;;;;;;;5095501;28;20099;-65
2023/05/23 08:12:05;;;;;;;9.73;5.10;;;;;;;;;;5112694;28;20032;-70
2023/05/23 08:14:30;;;;;;;19.60;5.70;;;;;;;;;;5115892;28;20103;-70
2023/05/23 08:16:56;;;;;;;27.83;5.90;;;;;;;;;;5115586;28;20358;-67
2023/05/23 08:19:21;;;;;;;11.75;5.18;;;;;;;;;;5108600;28;20481;-68
2023/05/23 08:21:47;;;;;;;9.70;4.55;;;;;;;;;;5094942;28;20545;-69
2023/05/23 08:24:12;;;;;;;17.00;5.20;;;;;;;;;;5095075;28;20111;-68
2023/05/23 08:26:38;;;;;;;9.82;5.68;;;;;;;;;;5094996;28;20039;-70
2023/05/23 08:29:04;;;;;;;12.57;5.50;;;;;;;;;;5094916;28;20028;-69
2023/05/23 08:31:30;;;;;;;15.05;6.13;;;;;;;;;;5095096;28;20036;-70
2023/05/23 08:33:56;;;;;;;20.38;6.15;;;;;;;;;;5076647;28;20552;-66
2023/05/23 08:36:22;;;;;;;19.80;6.38;;;;;;;;;;5097570;28;20024;-70
2023/05/23 08:38:49;;;;;;;22.98;6.10;;;;;;;;;;5100982;28;20042;-68
2023/05/23 08:41:22;;;;;;;10.02;5.38;;;;;;;;;;5115332;28;20083;-67
2023/05/23 08:43:48;;;;;;;14.45;5.82;;;;;;;;;;5114840;27;20043;-70
2023/05/23 08:46:14;;;;;;;12.70;5.63;;;;;;;;;;5115172;27;20027;-69
2023/05/23 08:48:41;;;;;;;17.05;6.22;;;;;;;;;;5113472;28;20035;-71
2023/05/23 08:51:10;;;;;;;14.00;6.13;;;;;;;;;;5115085;28;20042;-65
2023/05/23 08:53:39;;;;;;;12.43;5.40;;;;;;;;;;5108297;28;20027;-65
2023/05/23 08:56:05;;;;;;;11.57;5.97;;;;;;;;;;5094777;28;20431;-68
2023/05/23 08:58:33;;;;;;;18.35;5.82;;;;;;;;;;5094408;28;20113;-66
2023/05/23 09:00:59;;;;;;;14.45;6.20;;;;;;;;;;5094116;28;20028;-65
2023/05/23 09:03:28;;;;;;;11.95;6.25;;;;;;;;;;5094487;28;20024;-66
2023/05/23 09:05:54;;;;;;;14.05;5.70;;;;;;;;;;5094232;28;20036;-66
2023/05/23 09:08:20;;;;;;;11.20;4.90;;;;;;;;;;5092994;28;21273;-65
2023/05/23 09:10:48;;;;;;;12.38;5.82;;;;;;;;;;5104169;28;20019;-68
2023/05/23 09:13:16;;;;;;;15.50;5.85;;;;;;;;;;5105308;28;20032;-66
2023/05/23 09:16:02;;;;;;;15.07;6.20;;;;;;;;;;5094051;28;20362;-64
2023/05/23 09:18:41;;;;;;;9.18;6.07;;;;;;;;;;5110500;28;20073;-66
2023/05/23 09:21:10;;;;;;;13.07;5.60;;;;;;;;;;5103387;28;20039;-64
2023/05/23 09:23:38;;;;;;;9.57;5.60;;;;;;;;;;5073787;28;20393;-69
2023/05/23 09:26:05;;;;;;;10.88;5.80;;;;;;;;;;5091018;28;20024;-66
2023/05/23 09:28:36;;;;;;;18.65;6.00;;;;;;;;;;5114209;28;20102;-68
2023/05/23 09:31:03;;;;;;;16.45;6.00;;;;;;;;;;5113943;28;20469;-71
2023/05/23 09:33:38;;;;;;;18.55;6.18;;;;;;;;;;5114080;28;20111;-70
2023/05/23 09:36:05;;;;;;;13.40;6.45;;;;;;;;;;5112763;28;20059;-72
2023/05/23 09:38:31;;;;;;;10.05;6.15;;;;;;;;;;5097253;28;20102;-72
2023/05/23 09:40:58;;;;;;;16.27;6.28;;;;;;;;;;5114025;28;20119;-71
2023/05/23 09:43:23;;;;;;;14.38;6.22;;;;;;;;;;5112527;28;20412;-77
2023/05/23 09:45:49;;;;;;;8.25;5.10;;;;;;;;;;5113259;28;20058;-67
2023/05/23 09:48:14;;;;;;;7.35;4.90;;;;;;;;;;5113759;28;20059;-76
2023/05/23 09:50:40;;;;;;;12.40;5.43;;;;;;;;;;5113766;27;20027;-65
2023/05/23 09:53:06;;;;;;;9.40;5.03;;;;;;;;;;5112849;28;20380;-64
2023/05/23 09:55:31;;;;;;;7.78;5.45;;;;;;;;;;5093574;28;20419;-65
2023/05/23 09:57:58;;;;;;;6.93;5.47;;;;;;;;;;5093284;28;20024;-76
2023/05/23 10:00:24;;;;;;;7.30;5.32;;;;;;;;;;5092813;28;20040;-68
2023/05/23 10:03:09;;;;;;;9.35;6.43;;;;;;;;;;5093099;28;20036;-67
2023/05/23 10:05:48;;;;;;;7.47;5.13;;;;;;;;;;5092236;28;20027;-74
2023/05/23 10:08:28;;;;;;;15.73;7.40;;;;;;;;;;5091935;28;20114;-73
2023/05/23 10:10:56;;;;;;;9.18;6.05;;;;;;;;;;5093285;28;20428;-69
2023/05/23 10:13:30;;;;;;;9.20;5.45;;;;;;;;;;5092727;28;20210;-70
2023/05/23 10:16:05;;;;;;;9.55;6.03;;;;;;;;;;5092351;28;20051;-73
2023/05/23 10:18:37;;;;;;;9.48;5.78;;;;;;;;;;5092085;28;20062;-73
2023/05/23 10:21:08;;;;;;;14.13;6.93;;;;;;;;;;5091046;28;20027;-73
2023/05/23 10:23:35;;;;;;;16.63;5.50;;;;;;;;;;5090864;28;20036;-72
2023/05/23 10:26:03;;;;;;;12.75;6.07;;;;;;;;;;5092410;28;20325;-72
2023/05/23 10:28:30;;;;;;;10.50;6.28;;;;;;;;;;5092033;28;20389;-73
2023/05/23 10:30:56;;;;;;;7.88;5.97;;;;;;;;;;5092536;28;20035;-70
2023/05/23 10:33:22;;;;;;;11.68;6.47;;;;;;;;;;5091614;28;20024;-70
2023/05/23 10:36:09;;;;;;;13.02;6.10;;;;;;;;;;5096588;28;20040;-72
2023/05/23 10:38:49;;;;;;;10.80;5.53;;;;;;;;;;5102739;28;20023;-76
2023/05/23 10:41:22;;;;;;;;;;;;;;;;;;5096996;28;20035;-76
2023/05/23 10:43:56;;;;;;;7.80;5.30;;;;;;;;;;5096821;28;20333;-67
2023/05/23 10:46:21;;;;;;;8.82;5.60;;;;;;;;;;5094141;28;20485;-75
2023/05/23 10:48:47;;;;;;;9.60;5.28;;;;;;;;;;5095491;28;20028;-65
2023/05/23 10:51:14;;;;;;;7.82;5.22;;;;;;;;;;5105953;28;20495;-71
2023/05/23 10:53:41;;;;;;;9.13;5.65;;;;;;;;;;5102945;28;20032;-67
2023/05/23 10:56:08;;;;;;;6.97;3.47;;;;;;;;;;5092129;28;20043;-67
2023/05/23 10:58:35;;;;;;;10.77;3.80;;;;;;;;;;5092380;28;20043;-77
2023/05/23 11:01:08;;;;;;;5.35;3.45;;;;;;;;;;5092445;28;20024;-76
2023/05/23 11:03:35;;;;;;;5.90;3.20;;;;;;;;;;5092336;28;20606;-69
2023/05/23 11:06:05;;;;;;;6.93;3.10;;;;;;;;;;5092164;28;20032;-71
2023/05/23 11:08:40;;;;;;;7.20;3.53;;;;;;;;;;5102545;28;20016;-72
2023/05/23 11:11:06;;;;;;;7.07;3.28;;;;;;;;;;5112773;28;20401;-69
2023/05/23 11:14:01;;;;;;;6.68;3.60;;;;;;;;;;5112282;28;20039;-69
2023/05/23 11:16:30;;;;;;;5.65;3.67;;;;;;;;;;5109606;28;20028;-69
2023/05/23 11:19:17;;;;;;;8.10;4.10;;;;;;;;;;5112570;28;20324;-68
2023/05/23 11:21:59;;;;;;;10.10;4.07;;;;;;;;;;5107439;28;20367;-68
2023/05/23 11:24:47;;;;;;;7.32;3.80;;;;;;;;;;5091813;28;20091;-68
2023/05/23 11:27:13;;;;;;;6.82;3.83;;;;;;;;;;5090986;28;20043;-68
2023/05/23 11:29:38;;;;;;;6.95;3.92;;;;;;;;;;5092029;28;20024;-66
2023/05/23 11:32:12;;;;;;;7.03;4.40;;;;;;;;;;5093577;28;20386;-69
2023/05/23 11:34:38;;;;;;;11.25;4.00;;;;;;;;;;5093591;28;21196;-69
2023/05/23 11:37:03;;;;;;;7.80;3.90;;;;;;;;;;5112984;28;20043;-70
2023/05/23 11:39:29;;;;;;;5.22;3.50;;;;;;;;;;5116002;28;20027;-71
2023/05/23 11:42:01;;;;;;;7.15;3.35;;;;;;;;;;5104930;28;20346;-69
2023/05/23 11:44:27;;;;;;;4.30;3.20;;;;;;;;;;5112055;28;20126;-68
2023/05/23 11:47:00;;;;;;;8.60;3.40;;;;;;;;;;5099109;28;20433;-64
2023/05/23 11:49:31;;;;;;;7.85;3.65;;;;;;;;;;5106179;28;20069;-62
2023/05/23 11:51:58;;;;;;;6.93;3.60;;;;;;;;;;5109347;28;20030;-63
2023/05/23 11:54:27;;;;;;;6.00;3.30;;;;;;;;;;5098483;28;20108;-63
2023/05/23 11:56:54;;;;;;;7.82;4.32;;;;;;;;;;5115860;28;20023;-67
2023/05/23 11:59:25;;;;;;;6.50;3.20;;;;;;;;;;5115828;27;20058;-70
2023/05/23 12:01:51;;;;;;;7.88;3.90;;;;;;;;;;5115937;28;20051;-70
2023/05/23 12:04:16;;;;;;;4.95;3.00;;;;;;;;;;5115870;28;20020;-71
2023/05/23 12:06:45;;;;;;;5.80;3.70;;;;;;;;;;5115606;28;20027;-70
2023/05/23 12:09:11;;;;;;;5.25;3.40;;;;;;;;;;5115632;28;20473;-69
2023/05/23 12:11:38;;;;;;;5.85;3.53;;;;;;;;;;5115462;28;20019;-69
2023/05/23 12:14:05;;;;;;;5.03;3.40;;;;;;;;;;5115825;28;20023;-71
2023/05/23 12:16:31;;;;;;;5.68;3.35;;;;;;;;;;5115538;28;20028;-70
2023/05/23 12:18:57;;;;;;;6.20;3.60;;;;;;;;;;5115793;28;20116;-70
2023/05/23 12:21:38;;;;;;;4.68;3.30;;;;;;;;;;5113386;28;20055;-65
2023/05/23 12:24:16;;;;;;;8.63;3.75;;;;;;;;;;5093972;28;20201;-69
2023/05/23 12:26:58;;;;;;;9.32;4.00;;;;;;;;;;5095179;28;20092;-66
2023/05/23 12:29:29;;;;;;;6.70;3.85;;;;;;;;;;5094891;28;20020;-70
2023/05/23 12:31:57;;;;;;;7.07;3.85;;;;;;;;;;5094902;28;20020;-63
2023/05/23 12:34:23;;;;;;;6.45;3.55;;;;;;;;;;5094668;28;20016;-70
2023/05/23 12:36:48;;;;;;;6.40;4.32;;;;;;;;;;5094850;28;20024;-68
2023/05/23 12:39:15;;;;;;;5.03;3.42;;;;;;;;;;5104369;28;20385;-64
2023/05/23 12:41:41;;;;;;;7.00;3.72;;;;;;;;;;5115017;28;20016;-66
2023/05/23 12:44:07;;;;;;;6.65;4.07;;;;;;;;;;5106387;28;20040;-65
2023/05/23 12:46:32;;;;;;;6.32;4.13;;;;;;;;;;5093495;28;20024;-63
2023/05/23 12:48:58;;;;;;;6.53;3.58;;;;;;;;;;5093814;28;20024;-62
2023/05/23 12:51:26;;;;;;;6.53;4.07;;;;;;;;;;5093289;28;20115;-70
2023/05/23 12:53:51;;;;;;;6.15;3.80;;;;;;;;;;5094424;28;20397;-64
2023/05/23 12:56:16;;;;;;;7.85;3.92;;;;;;;;;;5096672;28;20024;-71
2023/05/23 12:58:42;;;;;;;8.85;4.22;;;;;;;;;;5094262;28;20080;-69
2023/05/23 13:01:08;;;;;;;13.30;4.60;;;;;;;;;;5094290;28;20028;-68
2023/05/23 13:03:33;;;;;;;6.57;3.67;;;;;;;;;;5094376;28;20103;-66
2023/05/23 13:05:59;;;;;;;6.07;3.92;;;;;;;;;;5094058;28;20350;-67
2023/05/23 13:08:26;;;;;;;7.57;4.25;;;;;;;;;;5093987;28;20039;-64
2023/05/23 13:10:52;;;;;;;6.13;3.67;;;;;;;;;;5094308;28;20383;-62
2023/05/23 13:13:18;;;;;;;8.85;4.15;;;;;;;;;;5093929;28;20039;-63
2023/05/23 13:15:44;;;;;;;6.43;3.90;;;;;;;;;;5094118;28;20028;-65
2023/05/23 13:18:09;;;;;;;4.75;3.90;;;;;;;;;;5094088;28;20112;-68
2023/05/23 13:20:35;;;;;;;12.23;4.40;;;;;;;;;;5093184;28;20036;-64
2023/05/23 13:23:00;;;;;;;11.88;4.03;;;;;;;;;;5104154;28;20020;-69
2023/05/23 13:25:26;;;;;;;6.20;4.10;;;;;;;;;;5112880;28;20058;-63
2023/05/23 13:27:52;;;;;;;11.02;4.72;;;;;;;;;;5092941;28;20032;-63
2023/05/23 13:30:19;;;;;;;7.38;3.85;;;;;;;;;;5093843;28;20024;-62
2023/05/23 13:32:44;;;;;;;7.07;3.45;;;;;;;;;;5093669;28;20027;-62
2023/05/23 13:35:10;;;;;;;7.38;3.80;;;;;;;;;;5093828;28;20465;-63
2023/05/23 13:37:36;;;;;;;7.00;4.47;;;;;;;;;;5093219;28;20063;-62
2023/05/23 13:40:02;;;;;;;6.72;4.07;;;;;;;;;;5083344;28;20033;-62
2023/05/23 13:42:28;;;;;;;7.30;4.10;;;;;;;;;;5085431;28;20032;-62
2023/05/23 13:44:54;;;;;;;9.18;4.00;;;;;;;;;;5081828;28;20041;-63
2023/05/23 13:47:19;;;;;;;6.88;3.97;;;;;;;;;;5075742;28;20043;-63
2023/05/23 13:49:45;;;;;;;8.48;4.68;;;;;;;;;;5093331;28;20024;-62
2023/05/23 13:52:11;;;;;;;8.35;4.25;;;;;;;;;;5083296;28;20025;-62
2023/05/23 13:54:37;;;;;;;6.32;4.60;;;;;;;;;;5086519;28;20350;-63
2023/05/23 13:57:02;;;;;;;5.95;4.43;;;;;;;;;;5093435;28;20454;-63
2023/05/23 13:59:28;;;;;;;9.50;4.82;;;;;;;;;;5093089;28;20032;-65
2023/05/23 14:01:53;;;;;;;5.78;4.30;;;;;;;;;;5088318;28;20021;-62
2023/05/23 14:04:19;;;;;;;7.95;4.70;;;;;;;;;;5083605;28;20028;-62
2023/05/23 14:06:44;;;;;;;7.40;4.63;;;;;;;;;;5082713;28;20036;-65
2023/05/23 14:09:11;;;;;;;7.63;4.57;;;;;;;;;;5072860;28;20028;-68
2023/05/23 14:11:37;;;;;;;7.95;4.47;;;;;;;;;;5072690;28;20055;-69
2023/05/23 14:14:03;;;;;;;10.48;5.32;;;;;;;;;;5072633;28;20666;-70
2023/05/23 14:16:29;;;;;;;6.13;4.22;;;;;;;;;;5072563;28;20052;-70
2023/05/23 14:18:54;;;;;;;6.40;3.40;;;;;;;;;;5072658;28;20013;-70
2023/05/23 14:21:20;;;;;;;10.38;4.93;;;;;;;;;;5074146;28;20035;-68
2023/05/23 14:23:46;;;;;;;9.35;4.75;;;;;;;;;;5092837;28;20039;-75
2023/05/23 14:26:11;;;;;;;10.73;5.05;;;;;;;;;;5092711;28;20024;-74
2023/05/23 14:28:37;;;;;;;9.48;5.07;;;;;;;;;;5092508;28;20032;-71
2023/05/23 14:31:02;;;;;;;7.47;4.90;;;;;;;;;;5092770;28;20047;-70
2023/05/23 14:33:28;;;;;;;9.68;4.90;;;;;;;;;;5092505;28;20522;-73
2023/05/23 14:35:54;;;;;;;7.47;4.50;;;;;;;;;;5093518;28;20119;-71
2023/05/23 14:38:19;;;;;;;4.93;3.80;;;;;;;;;;5092654;28;20028;-68